createdAt,value
2022-11-02T00:00:36.913Z,2.60
2022-11-02T00:03:03.845Z,2.40
2022-11-02T00:05:31.063Z,3.85
2022-11-02T00:07:57.852Z,3.10
2022-11-02T00:10:25.204Z,2.35
2022-11-02T00:12:52.409Z,2.65
2022-11-02T00:15:19.724Z,2.65
2022-11-02T00:17:52.669Z,2.42
2022-11-02T00:20:20.489Z,4.93
2022-11-02T00:22:50.624Z,2.40
2022-11-02T00:25:21.513Z,2.40
2022-11-02T00:27:48.078Z,2.20
2022-11-02T00:30:15.724Z,3.47
2022-11-02T00:32:42.438Z,2.33
2022-11-02T00:35:10.136Z,1.90
2022-11-02T00:37:36.922Z,3.42
2022-11-02T00:40:04.317Z,4.28
2022-11-02T00:42:30.874Z,2.72
2022-11-02T00:44:57.465Z,1.80
2022-11-02T00:47:24.101Z,1.90
2022-11-02T00:49:50.680Z,2.88
2022-11-02T00:52:17.228Z,2.83
2022-11-02T00:54:44.158Z,3.03
2022-11-02T00:57:10.721Z,3.53
2022-11-02T00:59:37.328Z,2.90
2022-11-02T01:02:04.098Z,1.98
2022-11-02T01:04:30.785Z,2.92
2022-11-02T01:06:57.345Z,4.03
2022-11-02T01:09:24.502Z,2.42
2022-11-02T01:11:51.462Z,2.47
2022-11-02T01:14:18.047Z,2.75
2022-11-02T01:19:16.300Z,2.92
2022-11-02T01:21:42.973Z,2.83
2022-11-02T01:24:09.607Z,2.08
2022-11-02T01:26:36.166Z,2.30
2022-11-02T01:29:02.772Z,3.00
2022-11-02T01:31:29.376Z,3.85
2022-11-02T01:33:55.926Z,5.05
2022-11-02T01:38:55.829Z,2.63
2022-11-02T01:41:22.480Z,3.20
2022-11-02T01:43:53.985Z,2.25
2022-11-02T01:46:30.946Z,2.53
2022-11-02T01:49:10.581Z,4.05
2022-11-02T01:51:39.476Z,2.60
2022-11-02T01:54:14.464Z,3.15
2022-11-02T01:56:43.594Z,2.72
2022-11-02T01:59:18.020Z,2.85
2022-11-02T02:01:45.791Z,2.42
2022-11-02T02:04:12.982Z,2.25
2022-11-02T02:06:40.741Z,3.78
2022-11-02T02:09:08.075Z,3.60
2022-11-02T02:11:37.259Z,2.85
2022-11-02T02:14:05.854Z,2.45
2022-11-02T02:16:41.325Z,2.92
2022-11-02T02:19:37.453Z,2.55
2022-11-02T02:22:03.980Z,3.33
2022-11-02T02:24:51.303Z,2.95
2022-11-02T02:27:25.233Z,2.60
2022-11-02T02:30:02.000Z,3.47
2022-11-02T02:32:34.448Z,2.72
2022-11-02T02:35:28.419Z,3.03
2022-11-02T02:38:00.243Z,2.45
2022-11-02T02:40:40.673Z,3.65
2022-11-02T02:43:13.707Z,3.45
2022-11-02T02:45:47.096Z,2.88
2022-11-02T02:48:24.640Z,3.22
2022-11-02T02:50:58.053Z,3.38
2022-11-02T02:53:33.741Z,2.85
2022-11-02T02:56:01.337Z,3.03
2022-11-02T02:58:51.491Z,3.13
2022-11-02T03:01:19.866Z,4.32
2022-11-02T03:03:47.467Z,2.88
2022-11-02T03:06:18.916Z,4.32
2022-11-02T03:08:55.568Z,2.40
2022-11-02T03:11:23.381Z,2.38
2022-11-02T03:14:27.454Z,2.13
2022-11-02T03:17:25.818Z,1.92
2022-11-02T03:19:57.674Z,3.25
2022-11-02T03:22:34.587Z,4.35
2022-11-02T03:25:17.753Z,3.15
2022-11-02T03:27:56.889Z,2.55
2022-11-02T03:30:26.668Z,5.15
2022-11-02T03:33:09.996Z,3.13
2022-11-02T03:35:43.575Z,2.95
2022-11-02T03:38:23.192Z,3.40
2022-11-02T03:40:52.776Z,2.78
2022-11-02T03:43:21.362Z,4.90
2022-11-02T03:45:52.775Z,3.60
2022-11-02T03:48:23.340Z,2.97
2022-11-02T03:50:52.972Z,2.20
2022-11-02T03:53:35.732Z,1.95
2022-11-02T03:56:08.186Z,3.72
2022-11-02T03:58:36.253Z,3.22
2022-11-02T04:01:08.079Z,2.75
2022-11-02T04:03:40.364Z,2.33
2022-11-02T04:06:07.318Z,2.97
2022-11-02T04:08:41.022Z,3.33
2022-11-02T04:11:26.748Z,3.88
2022-11-02T04:14:12.214Z,3.13
2022-11-02T04:16:38.997Z,3.22
2022-11-02T04:19:24.510Z,3.88
2022-11-02T04:22:09.917Z,2.50
2022-11-02T04:24:55.178Z,2.45
2022-11-02T04:27:22.016Z,3.40
2022-11-02T04:29:48.919Z,2.05
2022-11-02T04:32:36.059Z,2.28
2022-11-02T04:35:03.729Z,2.78
2022-11-02T04:38:07.662Z,3.60
2022-11-02T04:40:34.565Z,3.83
2022-11-02T04:43:01.269Z,3.15
2022-11-02T04:45:27.907Z,2.85
2022-11-02T04:48:00.973Z,2.67
2022-11-02T04:50:27.980Z,2.60
2022-11-02T04:53:02.296Z,3.38
2022-11-02T04:55:29.561Z,3.63
2022-11-02T04:57:56.326Z,3.30
2022-11-02T05:00:23.572Z,2.65
2022-11-02T05:02:50.805Z,2.60
2022-11-02T05:05:18.284Z,3.10
2022-11-02T05:07:45.041Z,2.20
2022-11-02T05:10:12.122Z,3.28
2022-11-02T05:12:38.808Z,2.65
2022-11-02T05:15:06.023Z,3.60
2022-11-02T05:17:32.715Z,3.40
2022-11-02T05:19:59.345Z,2.90
2022-11-02T05:22:25.981Z,3.10
2022-11-02T05:24:52.684Z,2.20
2022-11-02T05:27:19.233Z,2.80
2022-11-02T05:29:45.799Z,4.18
2022-11-02T05:32:12.459Z,3.13
2022-11-02T05:34:39.159Z,2.47
2022-11-02T05:37:05.852Z,2.88
2022-11-02T05:39:32.483Z,2.72
2022-11-02T05:41:59.105Z,2.40
2022-11-02T05:44:25.671Z,3.17
2022-11-02T05:46:52.328Z,2.78
2022-11-02T05:49:19.005Z,4.22
2022-11-02T05:51:45.654Z,2.38
2022-11-02T05:54:12.269Z,2.72
2022-11-02T05:56:38.860Z,3.72
2022-11-02T05:59:05.681Z,3.33
2022-11-02T06:01:32.630Z,4.32
2022-11-02T06:03:59.288Z,3.35
2022-11-02T06:06:26.256Z,3.97
2022-11-02T06:08:53.116Z,4.93
2022-11-02T06:11:19.917Z,3.42
2022-11-02T06:13:50.680Z,3.90
2022-11-02T06:16:22.684Z,3.22
2022-11-02T06:18:50.445Z,3.35
2022-11-02T06:21:17.252Z,4.07
2022-11-02T06:23:46.179Z,2.63
2022-11-02T06:26:12.903Z,3.17
2022-11-02T06:28:39.532Z,2.70
2022-11-02T06:31:06.490Z,3.08
2022-11-02T06:33:33.116Z,2.65
2022-11-02T06:36:00.060Z,2.75
2022-11-02T06:38:26.745Z,3.60
2022-11-02T06:40:58.320Z,4.63
2022-11-02T06:43:25.920Z,3.35
2022-11-02T06:45:57.484Z,2.50
2022-11-02T06:48:28.719Z,3.78
2022-11-02T06:50:58.155Z,3.28
2022-11-02T06:53:24.903Z,3.78
2022-11-02T06:55:53.171Z,5.00
2022-11-02T06:58:19.863Z,4.22
2022-11-02T07:00:46.582Z,2.45
2022-11-02T07:03:13.307Z,2.60
2022-11-02T07:05:40.055Z,4.97
2022-11-02T07:08:06.773Z,3.38
2022-11-02T07:10:35.473Z,3.45
2022-11-02T07:13:02.480Z,4.38
2022-11-02T07:15:29.376Z,3.05
2022-11-02T07:17:56.104Z,3.03
2022-11-02T07:20:22.939Z,4.50
2022-11-02T07:22:57.308Z,3.78
2022-11-02T07:25:25.466Z,5.32
2022-11-02T07:27:52.082Z,3.53
2022-11-02T07:30:19.112Z,5.68
2022-11-02T07:32:46.575Z,3.83
2022-11-02T07:35:14.864Z,2.72
2022-11-02T07:37:42.575Z,3.58
2022-11-02T07:40:11.270Z,3.40
2022-11-02T07:42:45.453Z,2.22
2022-11-02T07:45:12.701Z,3.38
2022-11-02T07:47:46.157Z,4.20
2022-11-02T07:50:14.853Z,3.53
2022-11-02T07:52:52.473Z,2.22
2022-11-02T07:55:29.936Z,4.18
2022-11-02T07:58:04.490Z,2.85
2022-11-02T08:00:34.049Z,4.78
2022-11-02T08:03:02.411Z,3.65
2022-11-02T08:05:30.860Z,2.90
2022-11-02T08:08:24.245Z,3.75
2022-11-02T08:10:52.634Z,3.03
2022-11-02T08:13:26.054Z,2.92
2022-11-02T08:15:53.828Z,3.55
2022-11-02T08:18:22.725Z,3.40
2022-11-02T08:20:50.138Z,3.22
2022-11-02T08:23:18.950Z,4.25
2022-11-02T08:25:47.116Z,3.40
2022-11-02T08:28:20.338Z,3.80
2022-11-02T08:30:46.978Z,3.20
2022-11-02T08:33:16.067Z,3.20
2022-11-02T08:35:44.534Z,2.70
2022-11-02T08:38:11.768Z,3.35
2022-11-02T08:40:38.953Z,3.17
2022-11-02T08:43:10.694Z,3.28
2022-11-02T08:46:12.686Z,2.47
2022-11-02T08:48:27.035Z,2.17
2022-11-02T08:50:53.714Z,2.60
2022-11-02T08:53:20.378Z,3.47
2022-11-02T08:55:47.028Z,3.58
2022-11-02T08:58:13.652Z,3.60
2022-11-02T09:00:40.352Z,3.65
2022-11-02T09:03:12.853Z,3.08
2022-11-02T09:05:42.639Z,2.55
2022-11-02T09:08:18.667Z,4.97
2022-11-02T09:10:47.768Z,4.38
2022-11-02T09:13:15.605Z,2.67
2022-11-02T09:15:42.450Z,2.53
2022-11-02T09:18:09.387Z,5.10
2022-11-02T09:20:36.697Z,4.05
2022-11-02T09:23:03.706Z,3.83
2022-11-02T09:25:30.410Z,4.72
2022-11-02T09:27:57.684Z,2.78
2022-11-02T09:30:26.026Z,2.78
2022-11-02T09:33:00.670Z,3.65
2022-11-02T09:35:29.796Z,2.53
2022-11-02T09:37:57.707Z,3.33
2022-11-02T09:40:27.900Z,2.72
2022-11-02T09:43:07.189Z,3.28
2022-11-02T09:46:01.533Z,4.13
2022-11-02T09:48:52.641Z,2.92
2022-11-02T09:51:22.961Z,3.33
2022-11-02T09:54:18.182Z,2.25
2022-11-02T09:56:46.094Z,3.33
2022-11-02T09:59:16.877Z,2.45
2022-11-02T10:01:56.843Z,2.17
2022-11-02T10:04:38.488Z,3.78
2022-11-02T10:07:17.280Z,2.77
2022-11-02T10:09:57.563Z,2.95
2022-11-02T10:12:55.125Z,3.58
2022-11-02T10:15:39.250Z,3.90
2022-11-02T10:18:13.281Z,1.77
2022-11-02T10:20:44.597Z,2.40
2022-11-02T10:23:26.698Z,1.95
2022-11-02T10:25:53.974Z,2.25
2022-11-02T10:28:25.825Z,2.30
2022-11-02T10:30:53.913Z,3.50
2022-11-02T10:33:27.424Z,2.47
2022-11-02T10:36:30.277Z,2.22
2022-11-02T10:39:09.185Z,2.58
2022-11-02T10:42:00.580Z,1.80
2022-11-02T10:45:03.663Z,2.13
2022-11-02T10:48:03.283Z,2.40
2022-11-02T10:50:50.364Z,3.25
2022-11-02T10:56:19.383Z,1.30
2022-11-02T10:58:55.781Z,2.30
2022-11-02T11:01:22.477Z,2.78
2022-11-02T11:04:02.575Z,1.95
2022-11-02T11:06:40.567Z,2.85
2022-11-02T11:09:22.909Z,2.42
2022-11-02T11:12:01.595Z,2.22
2022-11-02T11:20:38.623Z,3.63
2022-11-02T11:23:25.980Z,3.30
2022-11-02T11:25:57.082Z,3.28
2022-11-02T11:28:44.280Z,4.93
2022-11-02T11:31:17.054Z,2.85
2022-11-02T11:33:48.578Z,3.22
2022-11-02T11:36:35.517Z,4.03
2022-11-02T11:39:16.360Z,1.77
2022-11-02T11:41:42.963Z,1.85
2022-11-02T11:44:14.000Z,2.05
2022-11-02T11:46:44.227Z,2.33
2022-11-02T11:52:32.250Z,2.35
2022-11-02T11:55:24.611Z,2.70
2022-11-02T11:58:15.810Z,2.47
2022-11-02T12:00:42.664Z,2.75
2022-11-02T12:03:12.083Z,4.20
2022-11-02T12:06:03.031Z,2.00
2022-11-02T12:08:38.600Z,1.80
2022-11-02T12:11:27.784Z,2.38
2022-11-02T12:14:18.544Z,3.10
2022-11-02T12:17:10.318Z,2.55
2022-11-02T12:20:12.281Z,2.77
2022-11-02T12:22:59.000Z,1.83
2022-11-02T12:25:44.699Z,2.75
2022-11-02T12:28:43.131Z,1.42
2022-11-02T12:31:33.046Z,2.92
2022-11-02T12:34:02.464Z,2.63
2022-11-02T12:36:32.062Z,2.08
2022-11-02T12:39:20.241Z,2.88
2022-11-02T12:41:55.511Z,2.47
2022-11-02T12:44:45.267Z,2.05
2022-11-02T12:47:39.560Z,2.83
2022-11-02T12:50:29.011Z,2.40
2022-11-02T12:53:14.197Z,1.77
2022-11-02T12:55:55.949Z,1.92
2022-11-02T12:58:30.363Z,2.92
2022-11-02T13:01:03.488Z,1.98
2022-11-02T13:03:42.893Z,2.08
2022-11-02T13:06:15.832Z,2.45
2022-11-02T13:08:45.837Z,1.85
2022-11-02T13:11:38.165Z,3.20
2022-11-02T13:14:15.174Z,1.80
2022-11-02T13:16:50.326Z,1.75
2022-11-02T13:19:36.276Z,2.10
2022-11-02T13:22:04.397Z,2.72
2022-11-02T13:24:36.710Z,2.15
2022-11-02T13:29:54.278Z,1.55
2022-11-02T13:32:35.645Z,1.50
2022-11-02T13:35:26.060Z,1.92
2022-11-02T13:38:10.332Z,2.30
2022-11-02T13:40:42.680Z,1.92
2022-11-02T13:46:06.165Z,2.38
2022-11-02T13:48:48.187Z,2.08
2022-11-02T13:51:29.901Z,2.72
2022-11-02T13:54:02.042Z,2.37
2022-11-02T13:56:30.121Z,2.00
2022-11-02T13:59:05.666Z,2.97
2022-11-02T14:01:36.332Z,2.30
2022-11-02T14:04:10.551Z,1.90
2022-11-02T14:06:58.928Z,1.80
2022-11-02T14:09:34.546Z,2.33
2022-11-02T14:12:17.613Z,2.13
2022-11-02T14:14:45.290Z,2.53
2022-11-02T14:17:17.578Z,2.60
2022-11-02T14:22:15.710Z,2.20
2022-11-02T14:24:42.247Z,1.77
2022-11-02T14:27:11.851Z,1.65
2022-11-02T14:29:47.559Z,2.92
2022-11-02T14:32:17.291Z,1.40
2022-11-02T14:34:50.671Z,2.30
2022-11-02T14:37:38.833Z,2.60
2022-11-02T14:40:30.168Z,1.73
2022-11-02T14:43:24.785Z,0.95
2022-11-02T14:46:15.431Z,2.45
2022-11-02T14:48:52.044Z,3.13
2022-11-02T14:51:24.242Z,2.13
2022-11-02T14:53:58.758Z,2.45
2022-11-02T14:56:45.432Z,1.83
2022-11-02T14:59:48.483Z,2.65
2022-11-02T15:02:28.639Z,3.40
2022-11-02T15:04:57.852Z,1.60
2022-11-02T15:08:05.607Z,2.95
2022-11-02T15:10:32.150Z,1.90
2022-11-02T15:13:20.667Z,2.20
2022-11-02T15:15:50.261Z,1.80
2022-11-02T15:18:31.716Z,2.75
2022-11-02T15:21:10.616Z,3.05
2022-11-02T15:23:47.860Z,1.80
2022-11-02T15:26:27.698Z,2.53
2022-11-02T15:28:58.693Z,2.83
2022-11-02T15:31:26.882Z,2.53
2022-11-02T15:34:10.294Z,3.22
2022-11-02T15:36:39.004Z,2.85
2022-11-02T15:39:12.502Z,2.45
2022-11-02T15:42:04.164Z,2.13
2022-11-02T15:44:55.855Z,3.75
2022-11-02T15:47:28.140Z,2.63
2022-11-02T15:50:07.820Z,2.75
2022-11-02T15:53:27.557Z,2.13
2022-11-02T15:56:01.243Z,2.50
2022-11-02T15:58:37.021Z,3.58
2022-11-02T16:01:25.080Z,3.20
2022-11-02T16:04:01.853Z,2.08
2022-11-02T16:06:31.980Z,1.67
2022-11-02T16:09:03.006Z,3.05
2022-11-02T16:11:30.134Z,1.60
2022-11-02T16:14:17.396Z,2.40
2022-11-02T16:16:49.229Z,1.98
2022-11-02T16:19:19.958Z,2.95
2022-11-02T16:21:47.324Z,2.78
2022-11-02T16:24:14.091Z,2.20
2022-11-02T16:26:43.364Z,3.17
2022-11-02T16:29:10.723Z,1.98
2022-11-02T16:31:37.907Z,2.33
2022-11-02T16:34:24.081Z,2.20
2022-11-02T16:36:50.920Z,4.38
2022-11-02T16:39:30.198Z,1.92
2022-11-02T16:42:01.673Z,3.38
2022-11-02T16:44:31.023Z,3.53
2022-11-02T16:47:17.136Z,2.78
2022-11-02T16:49:50.672Z,2.67
2022-11-02T16:52:19.050Z,2.13
2022-11-02T16:54:45.968Z,2.35
2022-11-02T16:57:15.685Z,2.92
2022-11-02T16:59:53.386Z,2.92
2022-11-02T17:02:40.527Z,1.92
2022-11-02T17:05:18.005Z,4.05
2022-11-02T17:07:54.404Z,2.70
2022-11-02T17:10:27.045Z,2.80
2022-11-02T17:12:55.060Z,3.88
2022-11-02T17:15:29.903Z,2.67
2022-11-02T17:18:08.990Z,2.17
2022-11-02T17:20:37.944Z,3.28
2022-11-02T17:23:07.471Z,4.80
2022-11-02T17:25:39.567Z,4.35
2022-11-02T17:28:43.694Z,2.83
2022-11-02T17:31:21.314Z,2.38
2022-11-02T17:33:48.331Z,4.03
2022-11-02T17:36:15.639Z,4.13
2022-11-02T17:38:42.575Z,3.75
2022-11-02T17:41:33.813Z,3.63
2022-11-02T17:44:00.577Z,6.07
2022-11-02T17:46:27.439Z,4.68
2022-11-02T17:48:54.020Z,8.18
2022-11-02T17:51:23.286Z,7.97
2022-11-02T17:53:50.243Z,11.85
2022-11-02T17:56:16.886Z,12.75
2022-11-02T17:58:43.527Z,15.23
2022-11-02T18:01:12.941Z,10.63
2022-11-02T18:03:39.658Z,11.23
2022-11-02T18:06:06.616Z,11.02
2022-11-02T18:08:53.227Z,11.75
2022-11-02T18:11:25.842Z,10.63
2022-11-02T18:13:53.316Z,11.55
2022-11-02T18:16:20.003Z,12.40
2022-11-02T18:18:46.693Z,9.52
2022-11-02T18:21:13.346Z,12.57
2022-11-02T18:23:41.025Z,9.43
2022-11-02T18:26:10.906Z,10.30
2022-11-02T18:28:37.812Z,12.80
2022-11-02T18:31:08.724Z,13.50
2022-11-02T18:33:35.675Z,8.48
2022-11-02T18:36:07.477Z,9.50
2022-11-02T18:38:34.331Z,9.30
2022-11-02T18:41:27.094Z,9.40
2022-11-02T18:46:30.597Z,7.80
2022-11-02T18:48:58.275Z,7.60
2022-11-02T18:51:25.222Z,7.10
2022-11-02T18:54:00.555Z,5.95
2022-11-02T18:56:27.663Z,5.55
2022-11-02T18:58:55.542Z,6.03
2022-11-02T19:01:23.610Z,7.43
2022-11-02T19:03:58.711Z,6.43
2022-11-02T19:06:45.603Z,5.20
2022-11-02T19:09:23.405Z,6.78
2022-11-02T19:12:12.002Z,7.18
2022-11-02T19:14:40.624Z,7.95
2022-11-02T19:17:08.749Z,9.60
2022-11-02T19:19:35.657Z,9.98
2022-11-02T19:22:03.774Z,8.10
2022-11-02T19:24:30.638Z,7.47
2022-11-02T19:26:57.308Z,4.45
2022-11-02T19:29:24.244Z,4.95
2022-11-02T19:31:50.949Z,4.47
2022-11-02T19:34:17.765Z,5.93
2022-11-02T19:36:44.321Z,4.97
2022-11-02T19:39:11.298Z,3.80
2022-11-02T19:41:39.007Z,3.58
2022-11-02T19:44:06.577Z,5.03
2022-11-02T19:46:33.606Z,4.07
2022-11-02T19:49:00.247Z,4.30
2022-11-02T19:51:29.156Z,2.80
2022-11-02T19:53:59.238Z,2.83
2022-11-02T19:56:27.593Z,3.47
2022-11-02T19:58:55.256Z,3.53
2022-11-02T20:01:42.523Z,2.90
2022-11-02T20:04:10.231Z,4.45
2022-11-02T20:06:39.583Z,4.03
2022-11-02T20:09:10.110Z,3.92
2022-11-02T20:11:39.193Z,4.03
2022-11-02T20:14:05.852Z,4.93
2022-11-02T20:16:32.484Z,4.55
2022-11-02T20:18:59.449Z,3.47
2022-11-02T20:21:34.227Z,3.17
2022-11-02T20:24:02.923Z,3.83
2022-11-02T20:26:32.129Z,2.83
2022-11-02T20:29:00.245Z,2.60
2022-11-02T20:31:29.751Z,2.22
2022-11-02T20:33:58.236Z,2.33
2022-11-02T20:36:24.850Z,2.55
2022-11-02T20:38:52.100Z,2.88
2022-11-02T20:41:20.575Z,3.28
2022-11-02T20:43:49.637Z,3.65
2022-11-02T20:49:21.341Z,3.03
2022-11-02T20:51:55.740Z,5.88
2022-11-02T20:54:22.559Z,4.32
2022-11-02T20:56:50.191Z,2.38
2022-11-02T20:59:17.653Z,3.45
2022-11-02T21:01:44.816Z,4.22
2022-11-02T21:04:15.514Z,3.25
2022-11-02T21:06:46.232Z,3.05
2022-11-02T21:09:12.886Z,4.25
2022-11-02T21:11:58.661Z,3.17
2022-11-02T21:14:25.324Z,2.83
2022-11-02T21:16:52.104Z,4.15
2022-11-02T21:19:18.774Z,4.13
2022-11-02T21:21:45.377Z,6.82
2022-11-02T21:24:12.183Z,7.05
2022-11-02T21:26:39.033Z,4.45
2022-11-02T21:29:05.782Z,5.05
2022-11-02T21:31:32.533Z,2.92
2022-11-02T21:33:59.178Z,3.25
2022-11-02T21:36:25.807Z,5.22
2022-11-02T21:38:52.570Z,3.63
2022-11-02T21:41:21.927Z,3.75
2022-11-02T21:43:51.960Z,2.70
2022-11-02T21:46:19.772Z,3.17
2022-11-02T21:48:46.497Z,3.63
2022-11-02T21:51:15.800Z,2.65
2022-11-02T21:53:45.433Z,4.30
2022-11-02T21:56:20.575Z,4.47
2022-11-02T21:58:48.152Z,4.90
2022-11-02T22:01:42.561Z,4.95
2022-11-02T22:04:11.160Z,2.55
2022-11-02T22:06:38.245Z,3.03
2022-11-02T22:09:07.264Z,3.97
2022-11-02T22:11:33.985Z,3.10
2022-11-02T22:14:01.339Z,3.95
2022-11-02T22:16:31.729Z,3.60
2022-11-02T22:19:00.325Z,2.58
2022-11-02T22:21:28.912Z,3.70
2022-11-02T22:23:56.517Z,4.00
2022-11-02T22:26:25.239Z,3.30
2022-11-02T22:28:52.127Z,2.90
2022-11-02T22:31:23.144Z,2.97
2022-11-02T22:33:51.848Z,2.45
2022-11-02T22:36:21.229Z,3.22
2022-11-02T22:38:51.049Z,3.58
2022-11-02T22:41:29.423Z,3.65
2022-11-02T22:43:57.178Z,2.00
2022-11-02T22:46:25.365Z,3.50
2022-11-02T22:48:53.808Z,2.97
2022-11-02T22:51:22.023Z,2.35
2022-11-02T22:53:49.378Z,3.20
2022-11-02T22:56:18.445Z,2.15
2022-11-02T22:58:46.348Z,1.90
2022-11-02T23:01:16.770Z,2.78
2022-11-02T23:03:43.814Z,3.97
2022-11-02T23:06:11.184Z,2.78
2022-11-02T23:08:41.067Z,3.63
2022-11-02T23:11:22.347Z,3.22
2022-11-02T23:13:56.578Z,2.95
2022-11-02T23:16:27.900Z,3.22
2022-11-02T23:19:26.395Z,2.55
2022-11-02T23:22:21.176Z,2.60
2022-11-02T23:25:11.034Z,2.22
2022-11-02T23:27:58.596Z,2.95
2022-11-02T23:30:48.461Z,2.67
2022-11-02T23:33:16.098Z,4.82
2022-11-02T23:36:01.348Z,2.10
2022-11-02T23:38:48.856Z,2.55
2022-11-02T23:41:16.158Z,2.65
2022-11-02T23:43:42.872Z,1.98
2022-11-02T23:46:09.546Z,4.60
2022-11-02T23:48:36.149Z,3.55
2022-11-02T23:51:21.427Z,3.63
2022-11-02T23:54:06.952Z,2.92
2022-11-02T23:56:43.214Z,2.40
2022-11-02T23:59:13.791Z,2.85
